createdAt,value
2022-10-18T00:00:11.181Z,99.99
2022-10-18T00:01:11.290Z,99.99
2022-10-18T00:02:11.445Z,99.99
2022-10-18T00:03:11.547Z,99.99
2022-10-18T00:04:11.647Z,99.99
2022-10-18T00:05:11.757Z,99.99
2022-10-18T00:06:11.862Z,99.99
2022-10-18T00:07:11.987Z,99.99
2022-10-18T00:08:12.080Z,99.99
2022-10-18T00:09:12.193Z,99.99
2022-10-18T00:10:12.306Z,99.99
2022-10-18T00:11:12.488Z,99.99
2022-10-18T00:12:12.581Z,99.99
2022-10-18T00:13:12.785Z,99.99
2022-10-18T00:14:12.878Z,99.99
2022-10-18T00:15:13.027Z,99.99
2022-10-18T00:16:13.131Z,99.99
2022-10-18T00:17:13.325Z,99.99
2022-10-18T00:18:13.420Z,99.99
2022-10-18T00:19:13.615Z,99.99
2022-10-18T00:20:13.704Z,99.99
2022-10-18T00:21:13.826Z,99.99
2022-10-18T00:22:13.979Z,99.99
2022-10-18T00:23:14.168Z,99.99
2022-10-18T00:24:14.262Z,99.99
2022-10-18T00:25:14.453Z,99.99
2022-10-18T00:26:14.568Z,99.99
2022-10-18T00:27:14.677Z,99.99
2022-10-18T00:28:14.794Z,99.99
2022-10-18T00:29:14.963Z,99.99
2022-10-18T00:30:15.068Z,99.99
2022-10-18T00:31:15.301Z,99.99
2022-10-18T00:32:15.346Z,99.99
2022-10-18T00:33:15.537Z,99.99
2022-10-18T00:34:15.652Z,99.99
2022-10-18T00:35:15.821Z,99.99
2022-10-18T00:36:15.946Z,99.99
2022-10-18T00:37:16.049Z,99.99
2022-10-18T00:38:16.230Z,99.99
2022-10-18T00:39:16.386Z,99.99
2022-10-18T00:40:16.567Z,99.99
2022-10-18T00:41:16.696Z,99.99
2022-10-18T00:42:16.812Z,99.99
2022-10-18T00:43:16.913Z,99.99
2022-10-18T00:44:17.024Z,99.99
2022-10-18T00:45:17.206Z,99.99
2022-10-18T00:46:17.311Z,99.99
2022-10-18T00:47:17.425Z,99.99
2022-10-18T00:48:17.545Z,99.99
2022-10-18T00:49:17.722Z,99.99
2022-10-18T00:50:17.836Z,99.99
2022-10-18T00:51:18.006Z,99.99
2022-10-18T00:52:18.086Z,99.99
2022-10-18T00:53:18.295Z,99.99
2022-10-18T00:54:18.399Z,99.99
2022-10-18T00:55:18.510Z,99.99
2022-10-18T00:56:18.662Z,99.99
2022-10-18T00:57:18.884Z,99.99
2022-10-18T00:58:18.969Z,99.99
2022-10-18T00:59:19.075Z,99.99
2022-10-18T01:00:19.226Z,99.99
2022-10-18T01:01:21.299Z,99.99
2022-10-18T01:02:19.549Z,99.99
2022-10-18T01:03:19.655Z,99.99
2022-10-18T01:04:19.737Z,99.99
2022-10-18T01:05:19.844Z,99.99
2022-10-18T01:06:19.969Z,99.99
2022-10-18T01:07:20.163Z,99.99
2022-10-18T01:08:20.356Z,99.99
2022-10-18T01:09:20.397Z,99.99
2022-10-18T01:10:20.505Z,99.99
2022-10-18T01:11:20.673Z,99.99
2022-10-18T01:12:20.862Z,99.99
2022-10-18T01:13:24.831Z,99.99
2022-10-18T01:14:21.065Z,99.99
2022-10-18T01:15:21.257Z,99.99
2022-10-18T01:16:21.368Z,99.99
2022-10-18T01:17:21.556Z,99.99
2022-10-18T01:18:21.644Z,99.99
2022-10-18T01:19:21.765Z,99.99
2022-10-18T01:20:21.892Z,99.99
2022-10-18T01:21:22.020Z,99.99
2022-10-18T01:22:22.093Z,99.99
2022-10-18T01:23:22.270Z,99.99
2022-10-18T01:24:22.340Z,99.99
2022-10-18T01:25:22.499Z,99.99
2022-10-18T01:26:22.665Z,99.99
2022-10-18T01:27:22.839Z,99.99
2022-10-18T01:28:23.027Z,99.99
2022-10-18T01:29:23.130Z,99.99
2022-10-18T01:30:23.285Z,99.99
2022-10-18T01:31:23.407Z,99.99
2022-10-18T01:32:23.588Z,99.99
2022-10-18T01:33:23.709Z,99.99
2022-10-18T01:34:23.795Z,99.99
2022-10-18T01:35:23.945Z,99.99
2022-10-18T01:36:24.041Z,99.99
2022-10-18T01:37:24.211Z,99.99
2022-10-18T01:38:24.334Z,99.99
2022-10-18T01:39:24.508Z,99.99
2022-10-18T01:40:24.567Z,99.99
2022-10-18T01:41:24.711Z,99.99
2022-10-18T01:42:24.858Z,99.99
2022-10-18T01:43:25.024Z,99.99
2022-10-18T01:44:25.118Z,99.99
2022-10-18T01:45:25.267Z,99.99
2022-10-18T01:46:25.371Z,99.99
2022-10-18T01:47:25.526Z,99.99
2022-10-18T01:48:25.631Z,99.99
2022-10-18T01:49:25.745Z,99.99
2022-10-18T01:50:25.921Z,99.99
2022-10-18T01:51:26.081Z,99.99
2022-10-18T01:52:26.204Z,99.99
2022-10-18T01:53:26.365Z,99.99
2022-10-18T01:54:26.458Z,99.99
2022-10-18T01:55:26.605Z,99.99
2022-10-18T01:56:26.688Z,99.99
2022-10-18T01:57:26.805Z,99.99
2022-10-18T01:58:26.946Z,99.99
2022-10-18T01:59:27.057Z,99.99
2022-10-18T02:00:27.195Z,99.99
2022-10-18T02:01:27.394Z,99.99
2022-10-18T02:02:27.545Z,99.99
2022-10-18T02:03:27.646Z,99.99
2022-10-18T02:04:27.757Z,99.99
2022-10-18T02:05:27.886Z,99.99
2022-10-18T02:06:27.974Z,99.99
2022-10-18T02:07:28.101Z,99.99
2022-10-18T02:08:28.281Z,99.99
2022-10-18T02:09:28.403Z,99.99
2022-10-18T02:10:28.547Z,99.99
2022-10-18T02:11:28.690Z,99.99
2022-10-18T02:12:29.033Z,99.99
2022-10-18T02:13:28.927Z,99.99
2022-10-18T02:14:29.043Z,99.99
2022-10-18T02:15:29.197Z,99.99
2022-10-18T02:16:29.362Z,99.99
2022-10-18T02:17:29.483Z,99.99
2022-10-18T02:18:29.624Z,99.99
2022-10-18T02:19:29.822Z,99.99
2022-10-18T02:20:29.902Z,99.99
2022-10-18T02:21:30.043Z,99.99
2022-10-18T02:22:30.562Z,99.99
2022-10-18T02:23:30.374Z,99.99
2022-10-18T02:24:30.579Z,99.99
2022-10-18T02:25:30.656Z,99.99
2022-10-18T02:26:30.764Z,99.99
2022-10-18T02:27:30.955Z,99.99
2022-10-18T02:28:31.057Z,99.99
2022-10-18T02:29:31.181Z,99.99
2022-10-18T02:30:31.286Z,99.99
2022-10-18T02:31:31.477Z,99.99
2022-10-18T02:32:31.799Z,99.99
2022-10-18T02:33:31.757Z,99.99
2022-10-18T02:34:31.872Z,99.99
2022-10-18T02:35:31.977Z,99.99
2022-10-18T02:36:32.161Z,99.99
2022-10-18T02:37:32.261Z,99.99
2022-10-18T02:38:32.427Z,99.99
2022-10-18T02:39:32.557Z,99.99
2022-10-18T02:40:32.666Z,99.99
2022-10-18T02:41:32.821Z,99.99
2022-10-18T02:42:33.268Z,99.99
2022-10-18T02:43:33.032Z,99.99
2022-10-18T02:44:33.142Z,99.99
2022-10-18T02:45:33.288Z,99.99
2022-10-18T02:46:33.379Z,99.99
2022-10-18T02:47:33.927Z,99.99
2022-10-18T02:48:33.657Z,99.99
2022-10-18T02:49:33.796Z,99.99
2022-10-18T02:50:33.875Z,99.99
2022-10-18T02:51:33.984Z,99.99
2022-10-18T02:52:34.094Z,99.99
2022-10-18T02:53:34.221Z,99.99
2022-10-18T02:54:34.306Z,99.99
2022-10-18T02:55:34.492Z,99.99
2022-10-18T02:56:34.623Z,99.99
2022-10-18T02:57:34.892Z,99.99
2022-10-18T02:58:34.863Z,99.99
2022-10-18T02:59:34.984Z,99.99
2022-10-18T03:00:35.120Z,99.99
2022-10-18T03:01:35.289Z,99.99
2022-10-18T03:02:35.374Z,99.99
2022-10-18T03:03:35.536Z,99.99
2022-10-18T03:04:35.698Z,99.99
2022-10-18T03:05:35.802Z,99.99
2022-10-18T03:06:35.938Z,99.99
2022-10-18T03:07:36.052Z,99.99
2022-10-18T03:08:36.244Z,99.99
2022-10-18T03:09:36.363Z,99.99
2022-10-18T03:10:36.491Z,99.99
2022-10-18T03:11:36.592Z,99.99
2022-10-18T03:12:36.754Z,99.99
2022-10-18T03:13:36.863Z,99.99
2022-10-18T03:14:36.964Z,99.99
2022-10-18T03:15:37.057Z,99.99
2022-10-18T03:16:37.207Z,99.99
2022-10-18T03:17:37.344Z,99.99
2022-10-18T03:18:37.484Z,99.99
2022-10-18T03:19:37.618Z,99.99
2022-10-18T03:20:37.702Z,99.99
2022-10-18T03:21:37.845Z,99.99
2022-10-18T03:22:37.976Z,99.99
2022-10-18T03:23:38.072Z,99.99
2022-10-18T03:24:38.240Z,99.99
2022-10-18T03:25:40.548Z,99.99
2022-10-18T03:26:38.455Z,99.99
2022-10-18T03:27:38.545Z,99.99
2022-10-18T03:28:38.712Z,99.99
2022-10-18T03:29:38.843Z,99.99
2022-10-18T03:30:39.046Z,99.99
2022-10-18T03:31:39.138Z,99.99
2022-10-18T03:32:39.269Z,99.99
2022-10-18T03:33:39.432Z,99.99
2022-10-18T03:34:39.583Z,99.99
2022-10-18T03:35:39.685Z,99.99
2022-10-18T03:36:39.782Z,99.99
2022-10-18T03:37:39.905Z,99.99
2022-10-18T03:38:40.008Z,99.99
2022-10-18T03:39:40.098Z,99.99
2022-10-18T03:40:40.266Z,99.99
2022-10-18T03:41:40.338Z,99.99
2022-10-18T03:42:40.516Z,99.99
2022-10-18T03:43:40.645Z,99.99
2022-10-18T03:44:40.690Z,99.99
2022-10-18T03:45:40.824Z,99.99
2022-10-18T03:46:40.924Z,99.99
2022-10-18T03:47:41.030Z,99.99
2022-10-18T03:48:41.173Z,99.99
2022-10-18T03:49:41.277Z,99.99
2022-10-18T03:50:41.448Z,99.99
2022-10-18T03:51:41.560Z,99.99
2022-10-18T03:52:41.727Z,99.99
2022-10-18T03:53:41.845Z,99.99
2022-10-18T03:54:41.939Z,99.99
2022-10-18T03:55:42.053Z,99.99
2022-10-18T03:56:42.196Z,99.99
2022-10-18T03:57:42.271Z,99.99
2022-10-18T03:58:42.411Z,99.99
2022-10-18T03:59:42.539Z,99.99
2022-10-18T04:00:42.713Z,99.99
2022-10-18T04:01:42.887Z,99.99
2022-10-18T04:02:43.012Z,99.99
2022-10-18T04:03:43.146Z,99.99
2022-10-18T04:04:43.255Z,99.99
2022-10-18T04:05:43.364Z,99.99
2022-10-18T04:06:43.473Z,99.99
2022-10-18T04:07:43.583Z,99.99
2022-10-18T04:08:43.694Z,99.99
2022-10-18T04:09:43.793Z,99.99
2022-10-18T04:10:43.937Z,99.99
2022-10-18T04:11:44.031Z,99.99
2022-10-18T04:12:44.174Z,99.99
2022-10-18T04:13:44.286Z,99.99
2022-10-18T04:14:44.405Z,99.99
2022-10-18T04:15:44.511Z,99.99
2022-10-18T04:16:44.671Z,99.99
2022-10-18T04:17:45.042Z,99.99
2022-10-18T04:18:44.985Z,99.99
2022-10-18T04:19:45.091Z,99.99
2022-10-18T04:20:45.200Z,99.99
2022-10-18T04:21:45.355Z,99.99
2022-10-18T04:22:45.510Z,99.99
2022-10-18T04:23:45.639Z,99.99
2022-10-18T04:24:45.822Z,99.99
2022-10-18T04:25:45.987Z,99.99
2022-10-18T04:26:46.126Z,99.99
2022-10-18T04:27:46.288Z,99.99
2022-10-18T04:28:46.418Z,99.99
2022-10-18T04:29:46.484Z,99.99
2022-10-18T04:30:46.650Z,99.99
2022-10-18T04:31:46.751Z,99.99
2022-10-18T04:32:46.861Z,99.99
2022-10-18T04:33:46.959Z,99.99
2022-10-18T04:34:47.159Z,99.99
2022-10-18T04:35:47.293Z,99.99
2022-10-18T04:36:47.460Z,99.99
2022-10-18T04:37:47.555Z,99.99
2022-10-18T04:38:47.666Z,99.99
2022-10-18T04:39:51.150Z,99.99
2022-10-18T04:40:48.966Z,99.99
2022-10-18T04:41:48.112Z,99.99
2022-10-18T04:42:48.303Z,99.99
2022-10-18T04:43:48.392Z,99.99
2022-10-18T04:44:48.509Z,99.99
2022-10-18T04:45:48.632Z,99.99
2022-10-18T04:46:48.764Z,99.99
2022-10-18T04:47:48.922Z,99.99
2022-10-18T04:48:49.046Z,99.99
2022-10-18T04:49:49.181Z,99.99
2022-10-18T04:50:49.312Z,99.99
2022-10-18T04:51:49.462Z,99.99
2022-10-18T04:53:49.660Z,99.99
2022-10-18T04:54:49.845Z,99.99
2022-10-18T04:55:49.923Z,99.99
2022-10-18T04:56:50.043Z,99.99
2022-10-18T04:57:50.121Z,99.99
2022-10-18T04:58:50.254Z,99.99
2022-10-18T04:59:50.421Z,99.99
2022-10-18T05:00:50.562Z,99.99
2022-10-18T05:01:50.789Z,99.99
2022-10-18T05:02:50.824Z,99.99
2022-10-18T05:03:50.930Z,99.99
2022-10-18T05:04:51.110Z,99.99
2022-10-18T05:06:01.402Z,99.99
2022-10-18T05:06:52.345Z,99.99
2022-10-18T05:07:51.434Z,99.99
2022-10-18T05:08:51.576Z,99.99
2022-10-18T05:09:52.426Z,99.99
2022-10-18T05:10:51.965Z,99.99
2022-10-18T05:11:53.070Z,99.99
2022-10-18T05:12:52.135Z,99.99
2022-10-18T05:13:52.196Z,99.99
2022-10-18T05:14:52.361Z,99.99
2022-10-18T05:15:52.494Z,99.99
2022-10-18T05:16:52.623Z,99.99
2022-10-18T05:17:52.754Z,99.99
2022-10-18T05:18:52.920Z,99.99
2022-10-18T05:19:53.018Z,99.99
2022-10-18T05:20:53.181Z,99.99
2022-10-18T05:21:53.300Z,99.99
2022-10-18T05:22:53.422Z,99.99
2022-10-18T05:23:53.573Z,99.99
2022-10-18T05:24:53.680Z,99.99
2022-10-18T05:25:53.809Z,99.99
2022-10-18T05:26:53.921Z,99.99
2022-10-18T05:27:54.041Z,99.99
2022-10-18T05:28:54.221Z,99.99
2022-10-18T05:29:54.281Z,99.99
2022-10-18T05:30:54.391Z,99.99
2022-10-18T05:31:54.515Z,99.99
2022-10-18T05:32:54.636Z,99.99
2022-10-18T05:33:54.792Z,99.99
2022-10-18T05:34:54.970Z,99.99
2022-10-18T05:35:55.102Z,99.99
2022-10-18T05:36:55.230Z,99.99
2022-10-18T05:37:55.338Z,99.99
2022-10-18T05:38:56.292Z,99.99
2022-10-18T05:39:55.847Z,99.99
2022-10-18T05:40:55.763Z,99.99
2022-10-18T05:41:55.893Z,99.99
2022-10-18T05:42:56.150Z,99.99
2022-10-18T05:43:56.231Z,99.99
2022-10-18T05:44:56.364Z,99.99
2022-10-18T05:45:56.450Z,99.99
2022-10-18T05:46:56.631Z,99.99
2022-10-18T05:47:56.811Z,99.99
2022-10-18T05:48:56.948Z,99.99
2022-10-18T05:49:57.082Z,99.99
2022-10-18T05:50:57.211Z,99.99
2022-10-18T05:51:57.328Z,99.99
2022-10-18T05:53:02.755Z,99.99
2022-10-18T05:53:58.550Z,99.99
2022-10-18T05:54:57.719Z,99.99
2022-10-18T05:55:57.836Z,99.99
2022-10-18T05:56:57.941Z,99.99
2022-10-18T05:57:58.051Z,99.99
2022-10-18T05:58:58.241Z,99.99
2022-10-18T05:59:58.340Z,99.99
2022-10-18T06:00:58.462Z,99.99
2022-10-18T06:01:58.551Z,99.99
2022-10-18T06:03:00.334Z,99.99
2022-10-18T06:03:58.838Z,99.99
2022-10-18T06:04:58.935Z,99.99
2022-10-18T06:05:59.052Z,99.99
2022-10-18T06:06:59.214Z,99.99
2022-10-18T06:07:59.340Z,99.99
2022-10-18T06:08:59.477Z,99.99
2022-10-18T06:09:59.595Z,99.99
2022-10-18T06:10:59.729Z,99.99
2022-10-18T06:11:59.812Z,99.99
2022-10-18T06:12:59.972Z,99.99
2022-10-18T06:14:00.110Z,99.99
2022-10-18T06:15:00.251Z,99.99
2022-10-18T06:16:00.324Z,99.99
2022-10-18T06:17:00.469Z,99.99
2022-10-18T06:18:00.590Z,99.99
2022-10-18T06:19:00.730Z,99.99
2022-10-18T06:20:00.801Z,99.99
2022-10-18T06:21:00.929Z,99.99
2022-10-18T06:22:01.039Z,99.99
2022-10-18T06:23:01.173Z,99.99
2022-10-18T06:24:01.269Z,99.99
2022-10-18T06:25:01.403Z,99.99
2022-10-18T06:26:01.531Z,99.99
2022-10-18T06:27:01.707Z,99.99
2022-10-18T06:28:01.742Z,99.99
2022-10-18T06:29:02.072Z,99.99
2022-10-18T06:30:02.051Z,99.99
2022-10-18T06:31:02.152Z,99.99
2022-10-18T06:32:02.282Z,99.99
2022-10-18T06:33:02.391Z,99.99
2022-10-18T06:34:02.509Z,99.99
2022-10-18T06:35:02.643Z,99.99
2022-10-18T06:36:02.784Z,99.99
2022-10-18T06:37:02.857Z,99.99
2022-10-18T06:38:02.971Z,99.99
2022-10-18T06:39:03.079Z,99.99
2022-10-18T06:40:03.245Z,99.99
2022-10-18T06:41:03.342Z,99.99
2022-10-18T06:42:03.450Z,99.99
2022-10-18T06:43:19.511Z,99.99
2022-10-18T06:44:04.720Z,99.99
2022-10-18T06:45:03.929Z,99.99
2022-10-18T06:46:03.940Z,99.99
2022-10-18T06:47:04.057Z,99.99
2022-10-18T06:48:04.181Z,99.99
2022-10-18T06:49:04.313Z,99.99
2022-10-18T06:50:04.473Z,99.99
2022-10-18T06:51:04.555Z,99.99
2022-10-18T06:52:04.674Z,99.99
2022-10-18T06:53:04.787Z,99.99
2022-10-18T06:54:17.464Z,99.99
2022-10-18T06:55:09.056Z,99.99
2022-10-18T06:56:05.130Z,99.99
2022-10-18T06:57:05.251Z,99.99
2022-10-18T06:58:05.377Z,99.99
2022-10-18T06:59:05.463Z,99.99
2022-10-18T07:00:05.619Z,99.99
2022-10-18T07:01:05.731Z,99.99
2022-10-18T07:02:05.998Z,99.99
2022-10-18T07:03:05.954Z,99.99
2022-10-18T07:04:06.070Z,99.99
2022-10-18T07:05:06.215Z,99.99
2022-10-18T07:06:06.350Z,99.99
2022-10-18T07:07:07.397Z,99.99
2022-10-18T07:08:06.629Z,99.99
2022-10-18T07:09:06.732Z,99.99
2022-10-18T07:10:06.927Z,99.99
2022-10-18T07:11:07.053Z,99.99
2022-10-18T07:12:07.158Z,99.99
2022-10-18T07:13:30.810Z,99.99
2022-10-18T07:14:08.834Z,99.99
2022-10-18T07:15:09.546Z,99.99
2022-10-18T07:16:07.679Z,99.99
2022-10-18T07:17:07.779Z,99.99
2022-10-18T07:18:08.222Z,99.99
2022-10-18T07:19:08.020Z,99.99
2022-10-18T07:20:08.167Z,99.99
2022-10-18T07:21:08.295Z,99.99
2022-10-18T07:22:08.539Z,99.99
2022-10-18T07:23:08.540Z,99.99
2022-10-18T07:24:08.667Z,99.99
2022-10-18T07:25:08.812Z,99.99
2022-10-18T07:26:08.992Z,99.99
2022-10-18T07:27:09.036Z,99.99
2022-10-18T07:28:09.180Z,99.99
2022-10-18T07:29:09.354Z,99.99
2022-10-18T07:30:09.489Z,99.99
2022-10-18T07:31:09.856Z,99.99
2022-10-18T07:32:09.823Z,99.99
2022-10-18T07:33:09.836Z,99.99
2022-10-18T07:34:09.989Z,99.99
2022-10-18T07:35:13.233Z,99.99
2022-10-18T07:36:10.623Z,99.99
2022-10-18T07:37:10.384Z,99.99
2022-10-18T07:38:10.449Z,99.99
2022-10-18T07:39:10.597Z,99.99
2022-10-18T07:40:10.770Z,99.99
2022-10-18T07:41:10.877Z,99.99
2022-10-18T07:42:11.038Z,99.99
2022-10-18T07:43:12.314Z,99.99
2022-10-18T07:44:11.263Z,99.99
2022-10-18T07:45:11.379Z,99.99
2022-10-18T07:46:11.534Z,99.99
2022-10-18T07:47:11.624Z,99.99
2022-10-18T07:48:11.756Z,99.99
2022-10-18T07:49:11.914Z,99.99
2022-10-18T07:50:11.989Z,99.99
2022-10-18T07:51:12.086Z,99.99
2022-10-18T07:52:12.302Z,99.99
2022-10-18T07:53:12.399Z,99.99
2022-10-18T07:54:12.529Z,99.99
2022-10-18T07:55:12.638Z,99.99
2022-10-18T07:56:12.772Z,99.99
2022-10-18T07:57:12.883Z,99.99
2022-10-18T07:58:13.070Z,99.99
2022-10-18T07:59:13.211Z,99.99
2022-10-18T08:00:13.376Z,99.99
2022-10-18T08:01:13.501Z,99.99
2022-10-18T08:02:13.810Z,99.99
2022-10-18T08:03:14.957Z,99.99
2022-10-18T08:04:16.417Z,99.99
2022-10-18T08:05:13.923Z,99.99
2022-10-18T08:06:14.066Z,99.99
2022-10-18T08:07:14.181Z,99.99
2022-10-18T08:08:14.323Z,99.99
2022-10-18T08:09:14.735Z,99.99
2022-10-18T08:10:14.566Z,99.99
2022-10-18T08:11:14.688Z,99.99
2022-10-18T08:12:14.823Z,99.99
2022-10-18T08:13:14.947Z,99.99
2022-10-18T08:14:15.086Z,99.99
2022-10-18T08:15:15.185Z,99.99
2022-10-18T08:16:15.310Z,99.99
2022-10-18T08:17:15.619Z,99.99
2022-10-18T08:18:15.678Z,99.99
2022-10-18T08:19:15.785Z,99.99
2022-10-18T08:20:29.848Z,99.99
2022-10-18T08:21:16.995Z,99.99
2022-10-18T08:22:16.136Z,99.99
2022-10-18T08:23:16.209Z,99.99
2022-10-18T08:24:16.371Z,99.99
2022-10-18T08:25:16.475Z,99.99
2022-10-18T08:26:16.558Z,99.99
2022-10-18T08:27:16.782Z,99.99
2022-10-18T08:28:16.795Z,99.99
2022-10-18T08:29:23.324Z,99.99
2022-10-18T08:30:18.057Z,99.99
2022-10-18T08:31:17.191Z,99.99
2022-10-18T08:32:17.300Z,99.99
2022-10-18T08:33:17.439Z,99.99
2022-10-18T08:34:19.800Z,99.99
2022-10-18T08:35:17.658Z,99.99
2022-10-18T08:36:18.108Z,99.99
2022-10-18T08:37:17.936Z,99.99
2022-10-18T08:38:18.912Z,99.99
2022-10-18T08:39:18.234Z,99.99
2022-10-18T08:40:18.449Z,99.99
2022-10-18T08:41:18.444Z,99.99
2022-10-18T08:42:18.582Z,99.99
2022-10-18T08:43:21.762Z,99.99
2022-10-18T08:44:18.808Z,99.99
2022-10-18T08:45:37.377Z,99.99
2022-10-18T08:46:20.115Z,99.99
2022-10-18T08:47:19.258Z,99.99
2022-10-18T08:48:19.299Z,99.99
2022-10-18T08:49:19.397Z,99.99
2022-10-18T08:50:19.582Z,99.99
2022-10-18T08:51:19.702Z,99.99
2022-10-18T08:52:19.833Z,99.99
2022-10-18T08:53:19.917Z,99.99
2022-10-18T08:54:20.071Z,99.99
2022-10-18T08:55:20.171Z,99.99
2022-10-18T08:56:20.317Z,99.99
2022-10-18T08:57:20.480Z,99.99
2022-10-18T08:58:20.568Z,99.99
2022-10-18T08:59:24.746Z,99.99
2022-10-18T09:00:21.854Z,99.99
2022-10-18T09:01:20.945Z,99.99
2022-10-18T09:02:21.135Z,99.99
2022-10-18T09:03:21.268Z,99.99
2022-10-18T09:04:21.359Z,99.99
2022-10-18T09:05:21.439Z,99.75
2022-10-18T09:06:23.510Z,96.04
2022-10-18T09:07:21.673Z,93.42
2022-10-18T09:08:21.790Z,92.68
2022-10-18T09:09:22.017Z,92.99
2022-10-18T09:10:22.023Z,90.33
2022-10-18T09:11:22.255Z,90.25
2022-10-18T09:12:22.393Z,88.14
2022-10-18T09:13:23.453Z,88.75
2022-10-18T09:14:22.566Z,85.89
2022-10-18T09:15:22.682Z,85.30
2022-10-18T09:16:22.826Z,84.47
2022-10-18T09:17:22.935Z,87.54
2022-10-18T09:18:23.180Z,87.36
2022-10-18T09:19:23.141Z,85.31
2022-10-18T09:20:23.319Z,82.91
2022-10-18T09:21:23.413Z,84.21
2022-10-18T09:22:23.544Z,84.51
2022-10-18T09:23:23.692Z,83.51
2022-10-18T09:24:23.785Z,83.27
2022-10-18T09:25:23.921Z,84.07
2022-10-18T09:26:24.173Z,83.07
2022-10-18T09:27:24.156Z,81.37
2022-10-18T09:28:24.358Z,81.27
2022-10-18T09:29:24.371Z,82.27
2022-10-18T09:30:24.602Z,82.21
2022-10-18T09:31:24.628Z,81.77
2022-10-18T09:32:24.790Z,80.97
2022-10-18T09:33:24.911Z,79.57
2022-10-18T09:34:25.069Z,80.77
2022-10-18T09:35:25.154Z,82.33
2022-10-18T09:36:25.299Z,81.93
2022-10-18T09:37:25.391Z,81.13
2022-10-18T09:39:25.633Z,82.07
2022-10-18T09:40:25.767Z,81.71
2022-10-18T09:41:25.892Z,83.21
2022-10-18T09:42:26.006Z,83.55
2022-10-18T09:43:26.159Z,82.35
2022-10-18T09:44:26.305Z,81.01
2022-10-18T09:45:26.385Z,80.80
2022-10-18T09:46:26.525Z,81.41
2022-10-18T09:47:26.705Z,82.31
2022-10-18T09:48:26.803Z,81.85
2022-10-18T09:49:26.930Z,81.95
2022-10-18T09:50:27.063Z,82.75
2022-10-18T09:51:27.165Z,81.11
2022-10-18T09:52:29.800Z,79.50
2022-10-18T09:53:28.107Z,80.47
2022-10-18T09:54:29.652Z,79.03
2022-10-18T09:55:29.717Z,79.03
2022-10-18T09:56:31.316Z,80.29
2022-10-18T09:57:27.872Z,77.66
2022-10-18T09:58:27.985Z,77.58
2022-10-18T09:59:28.126Z,75.74
2022-10-18T10:00:28.263Z,75.21
2022-10-18T10:01:28.372Z,73.11
2022-10-18T10:02:28.522Z,73.52
2022-10-18T10:03:28.650Z,74.41
2022-10-18T10:04:28.772Z,73.85
2022-10-18T10:05:28.916Z,71.39
2022-10-18T10:06:29.026Z,70.65
2022-10-18T10:07:32.564Z,68.73
2022-10-18T10:08:30.396Z,68.80
2022-10-18T10:09:29.372Z,68.10
2022-10-18T10:10:29.529Z,66.68
2022-10-18T10:11:29.649Z,65.16
2022-10-18T10:12:29.812Z,62.98
2022-10-18T10:13:29.937Z,64.95
2022-10-18T10:14:30.045Z,63.90
2022-10-18T10:15:35.283Z,63.45
2022-10-18T10:16:31.269Z,60.80
2022-10-18T10:17:30.802Z,62.05
2022-10-18T10:18:30.546Z,62.08
2022-10-18T10:19:30.629Z,62.45
2022-10-18T10:20:30.789Z,60.02
2022-10-18T10:21:30.908Z,59.27
2022-10-18T10:22:31.068Z,59.89
2022-10-18T10:23:31.182Z,62.32
2022-10-18T10:24:31.413Z,62.76
2022-10-18T10:25:31.461Z,60.45
2022-10-18T10:26:31.538Z,61.10
2022-10-18T10:27:32.005Z,60.51
2022-10-18T10:28:31.840Z,60.67
2022-10-18T10:29:43.939Z,61.12
2022-10-18T10:30:33.117Z,64.78
2022-10-18T10:31:32.226Z,67.60
2022-10-18T10:32:32.357Z,69.66
2022-10-18T10:33:32.478Z,71.36
2022-10-18T10:34:33.442Z,74.26
2022-10-18T10:35:52.451Z,76.20
2022-10-18T10:36:34.045Z,75.56
2022-10-18T10:37:33.465Z,73.35
2022-10-18T10:38:33.163Z,69.76
2022-10-18T10:39:33.317Z,67.63
2022-10-18T10:40:33.415Z,64.26
2022-10-18T10:41:33.514Z,62.97
2022-10-18T10:42:34.025Z,62.74
2022-10-18T10:43:38.271Z,61.72
2022-10-18T10:44:34.880Z,63.31
2022-10-18T10:45:33.980Z,59.95
2022-10-18T10:46:34.111Z,57.20
2022-10-18T10:47:34.208Z,57.45
2022-10-18T10:48:34.381Z,56.10
2022-10-18T10:49:40.293Z,54.23
2022-10-18T10:50:35.593Z,54.28
2022-10-18T10:51:34.747Z,57.23
2022-10-18T10:52:34.849Z,56.67
2022-10-18T10:53:34.996Z,58.36
2022-10-18T10:54:35.074Z,61.71
2022-10-18T10:55:35.814Z,64.31
2022-10-18T10:56:35.305Z,66.50
2022-10-18T10:57:35.456Z,67.86
2022-10-18T10:58:35.562Z,68.29
2022-10-18T10:59:35.699Z,70.32
2022-10-18T11:00:35.813Z,70.26
2022-10-18T11:01:35.949Z,67.07
2022-10-18T11:02:36.351Z,65.19
2022-10-18T11:03:36.244Z,61.99
2022-10-18T11:04:36.332Z,59.81
2022-10-18T11:05:36.496Z,58.25
2022-10-18T11:06:36.591Z,57.10
2022-10-18T11:07:36.743Z,54.68
2022-10-18T11:08:36.927Z,54.41
2022-10-18T11:09:36.969Z,54.61
2022-10-18T11:10:37.114Z,53.52
2022-10-18T11:11:37.273Z,55.35
2022-10-18T11:12:37.345Z,55.75
2022-10-18T11:13:37.461Z,54.71
2022-10-18T11:14:37.588Z,55.15
2022-10-18T11:15:37.740Z,53.39
2022-10-18T11:16:37.885Z,52.83
2022-10-18T11:17:38.038Z,52.95
2022-10-18T11:18:38.144Z,53.17
2022-10-18T11:19:38.316Z,53.59
2022-10-18T11:20:38.410Z,54.31
2022-10-18T11:21:38.567Z,56.00
2022-10-18T11:22:38.708Z,55.70
2022-10-18T11:23:38.840Z,55.70
2022-10-18T11:24:38.941Z,55.97
2022-10-18T11:25:39.083Z,55.40
2022-10-18T11:26:41.072Z,52.68
2022-10-18T11:27:39.378Z,53.12
2022-10-18T11:28:39.443Z,52.06
2022-10-18T11:29:39.573Z,51.50
2022-10-18T11:30:39.723Z,51.87
2022-10-18T11:31:39.803Z,53.15
2022-10-18T11:32:39.933Z,51.35
2022-10-18T11:34:07.067Z,53.03
2022-10-18T11:34:41.391Z,53.03
2022-10-18T11:35:40.373Z,52.83
2022-10-18T11:36:46.220Z,53.30
2022-10-18T11:37:41.888Z,53.75
2022-10-18T11:38:40.695Z,53.40
2022-10-18T11:39:40.952Z,53.30
2022-10-18T11:40:41.226Z,53.11
2022-10-18T11:41:41.063Z,54.32
2022-10-18T11:42:41.204Z,51.82
2022-10-18T11:44:01.267Z,52.51
2022-10-18T11:44:42.424Z,54.39
2022-10-18T11:45:41.567Z,54.79
2022-10-18T11:46:41.700Z,54.17
2022-10-18T11:47:42.352Z,54.74
2022-10-18T11:48:41.941Z,52.78
2022-10-18T11:49:42.075Z,52.39
2022-10-18T11:50:42.228Z,51.59
2022-10-18T11:52:06.742Z,52.88
2022-10-18T11:52:43.842Z,55.78
2022-10-18T11:53:42.565Z,57.10
2022-10-18T11:54:43.201Z,56.53
2022-10-18T11:55:42.877Z,57.00
2022-10-18T11:56:42.933Z,55.90
2022-10-18T11:57:43.145Z,53.55
2022-10-18T11:58:43.192Z,52.09
2022-10-18T11:59:43.323Z,51.59
2022-10-18T12:00:43.450Z,51.57
2022-10-18T12:01:43.635Z,50.07
2022-10-18T12:02:43.847Z,49.26
2022-10-18T12:03:43.910Z,49.16
2022-10-18T12:04:53.038Z,48.49
2022-10-18T12:05:45.190Z,49.01
2022-10-18T12:06:44.361Z,49.52
2022-10-18T12:07:44.524Z,50.78
2022-10-18T12:08:44.606Z,50.24
2022-10-18T12:09:44.745Z,50.41
2022-10-18T12:11:03.853Z,49.40
2022-10-18T12:11:53.546Z,49.01
2022-10-18T12:12:48.219Z,49.99
2022-10-18T12:13:46.220Z,51.45
2022-10-18T12:14:46.153Z,50.12
2022-10-18T12:15:49.206Z,49.99
2022-10-18T12:16:51.465Z,50.66
2022-10-18T12:17:50.065Z,48.59
2022-10-18T12:18:45.762Z,47.73
2022-10-18T12:19:45.862Z,47.36
2022-10-18T12:20:46.996Z,48.57
2022-10-18T12:21:46.104Z,48.35
2022-10-18T12:22:46.226Z,47.51
2022-10-18T12:23:46.378Z,47.49
2022-10-18T12:24:46.439Z,45.20
2022-10-18T12:25:46.613Z,45.20
2022-10-18T12:26:46.707Z,45.92
2022-10-18T12:27:46.886Z,46.03
2022-10-18T12:28:47.057Z,46.94
2022-10-18T12:29:50.247Z,45.52
2022-10-18T12:30:47.279Z,46.17
2022-10-18T12:31:47.428Z,44.42
2022-10-18T12:33:02.191Z,44.71
2022-10-18T12:33:48.643Z,45.23
2022-10-18T12:34:47.762Z,44.88
2022-10-18T12:35:47.893Z,46.45
2022-10-18T12:36:48.004Z,47.65
2022-10-18T12:37:48.107Z,48.69
2022-10-18T12:38:48.221Z,48.07
2022-10-18T12:40:09.376Z,45.90
2022-10-18T12:40:49.492Z,47.06
2022-10-18T12:41:48.628Z,47.03
2022-10-18T12:42:48.760Z,47.80
2022-10-18T12:43:48.918Z,46.74
2022-10-18T12:44:49.012Z,46.10
2022-10-18T12:45:49.173Z,47.23
2022-10-18T12:46:49.303Z,48.02
2022-10-18T12:47:49.474Z,47.19
2022-10-18T12:48:49.565Z,46.47
2022-10-18T12:49:49.661Z,46.35
2022-10-18T12:50:49.759Z,44.78
2022-10-18T12:51:49.879Z,45.56
2022-10-18T12:52:49.982Z,46.62
2022-10-18T12:53:50.094Z,44.12
2022-10-18T12:54:50.223Z,43.39
2022-10-18T12:55:50.373Z,43.63